Time;durP1;ratioP1;P1;durP2;ratioP2;P2;SDS_P1;SDS_P2;PMS_P1;PMS_P2;Temp;Humidity;BMP_temperature;BMP_pressure;BME280_temperature;BME280_humidity;BME280_pressure;Samples;Min_cycle;Max_cycle;Signal;HPM_P1;HPM_P2
2022/03/11 00:01:19;;;;;;;18.13;16.15;;;;;;;-1.92;55.79;95625.91;5117991;28;20214;-65
2022/03/11 00:03:46;;;;;;;18.60;16.70;;;;;;;-1.94;56.60;95637.81;5117281;28;20199;-65
2022/03/11 00:06:13;;;;;;;24.50;22.02;;;;;;;-2.02;55.67;95637.47;5117790;27;20184;-65
2022/03/11 00:08:41;;;;;;;19.67;17.77;;;;;;;-2.06;56.28;95626.38;5117999;28;20188;-65
2022/03/11 00:11:08;;;;;;;18.15;16.55;;;;;;;-2.09;56.84;95634.19;5117036;28;20192;-65
2022/03/11 00:13:35;;;;;;;18.67;17.02;;;;;;;-2.13;56.64;95631.19;5117690;28;20192;-65
2022/03/11 00:16:02;;;;;;;20.70;18.70;;;;;;;-2.16;56.90;95631.69;5117842;28;20187;-65
2022/03/11 00:18:29;;;;;;;20.98;18.95;;;;;;;-2.22;56.70;95624.63;5117661;28;20207;-65
2022/03/11 00:20:56;;;;;;;21.15;19.15;;;;;;;-2.26;57.02;95624.31;5116871;28;20194;-65
2022/03/11 00:23:23;;;;;;;21.38;19.33;;;;;;;-2.25;56.71;95617.03;5117576;28;20245;-65
2022/03/11 00:25:51;;;;;;;20.67;18.77;;;;;;;-2.28;57.26;95621.09;5117073;28;20229;-65
2022/03/11 00:28:18;;;;;;;20.40;18.60;;;;;;;-2.25;57.13;95615.16;5116419;28;20207;-65
2022/03/11 00:30:45;;;;;;;20.25;18.35;;;;;;;-2.26;57.08;95612.69;5117505;28;20223;-65
2022/03/11 00:33:12;;;;;;;19.08;17.27;;;;;;;-2.28;56.69;95612.16;5117448;28;20186;-65
2022/03/11 00:35:39;;;;;;;18.42;16.63;;;;;;;-2.30;56.98;95609.69;5116464;28;20245;-65
2022/03/11 00:38:05;;;;;;;18.25;16.40;;;;;;;-2.30;56.69;95609.69;5117245;28;20223;-65
2022/03/11 00:40:32;;;;;;;16.85;15.25;;;;;;;-2.31;57.18;95604.56;5117388;28;20203;-65
2022/03/11 00:43:00;;;;;;;16.05;14.55;;;;;;;-2.35;56.93;95606.97;5116329;28;20241;-65
2022/03/11 00:45:28;;;;;;;15.93;14.45;;;;;;;-2.35;57.22;95604.28;5117118;28;20180;-65
2022/03/11 00:47:54;;;;;;;16.67;15.13;;;;;;;-2.34;57.25;95608.59;5117202;28;20337;-65
2022/03/11 00:50:22;;;;;;;16.30;14.80;;;;;;;-2.33;57.25;95604.00;5117159;28;20257;-65
2022/03/11 00:52:49;;;;;;;15.68;14.27;;;;;;;-2.31;57.63;95599.16;5117174;28;20184;-65
2022/03/11 00:55:16;;;;;;;15.55;14.05;;;;;;;-2.28;56.99;95601.34;5116044;28;20203;-65
2022/03/11 00:57:43;;;;;;;15.25;13.75;;;;;;;-2.27;57.10;95605.69;5117026;27;20188;-65
2022/03/11 01:00:12;;;;;;;14.70;13.30;;;;;;;-2.25;57.20;95598.94;5116597;28;20210;-65
2022/03/11 01:02:40;;;;;;;14.23;12.93;;;;;;;-2.23;57.11;95601.38;5116553;28;20190;-65
2022/03/11 01:05:08;;;;;;;14.10;12.90;;;;;;;-2.24;56.91;95597.88;5116886;28;20180;-65
2022/03/11 01:07:35;;;;;;;14.00;12.70;;;;;;;-2.22;56.69;95603.00;5116740;28;20400;-65
2022/03/11 01:10:02;;;;;;;14.27;12.80;;;;;;;-2.21;57.20;95605.47;5116501;28;20191;-65
2022/03/11 01:12:29;;;;;;;14.23;13.02;;;;;;;-2.25;56.82;95600.81;5116689;28;20195;-65
2022/03/11 01:14:55;;;;;;;13.40;12.27;;;;;;;-2.25;57.05;95608.91;5116336;28;20192;-65
2022/03/11 01:17:24;;;;;;;13.70;12.50;;;;;;;-2.24;57.46;95613.28;5115861;28;20568;-65
2022/03/11 01:19:50;;;;;;;13.73;12.43;;;;;;;-2.24;57.85;95618.69;5116488;28;20207;-65
2022/03/11 01:22:18;;;;;;;13.85;12.65;;;;;;;-2.21;58.04;95613.56;5116397;28;20191;-65
2022/03/11 01:24:45;;;;;;;13.77;12.52;;;;;;;-2.20;57.99;95608.97;5116500;28;20282;-65
2022/03/11 01:27:12;;;;;;;13.55;12.35;;;;;;;-2.23;58.14;95609.47;5115625;28;20213;-65
2022/03/11 01:29:39;;;;;;;13.90;12.63;;;;;;;-2.27;57.72;95608.38;5116070;28;20180;-65
2022/03/11 01:32:06;;;;;;;13.60;12.43;;;;;;;-2.38;58.16;95610.19;5116302;28;20211;-66
2022/03/11 01:34:34;;;;;;;13.40;12.18;;;;;;;-2.43;58.06;95610.16;5115808;28;20199;-66
2022/03/11 01:37:01;;;;;;;14.25;13.05;;;;;;;-2.42;58.51;95606.38;5116262;28;20181;-66
2022/03/11 01:39:28;;;;;;;13.43;12.27;;;;;;;-2.38;58.47;95599.38;5115102;28;20226;-66
2022/03/11 01:41:55;;;;;;;15.20;13.80;;;;;;;-2.40;59.38;95596.09;5115228;28;20210;-65
2022/03/11 01:44:24;;;;;;;14.50;13.10;;;;;;;-2.44;58.49;95598.50;5115886;28;20246;-65
2022/03/11 01:46:51;;;;;;;12.75;11.55;;;;;;;-2.46;58.43;95605.25;5116021;28;20194;-65
2022/03/11 01:49:18;;;;;;;12.15;11.15;;;;;;;-2.52;57.87;95601.69;5115210;28;20196;-65
2022/03/11 01:51:46;;;;;;;12.75;11.65;;;;;;;-2.54;58.66;95608.41;5115582;28;20191;-66
2022/03/11 01:54:14;;;;;;;12.80;11.60;;;;;;;-2.53;58.20;95600.06;5115998;28;20191;-66
2022/03/11 01:56:41;;;;;;;12.27;11.27;;;;;;;-2.51;57.85;95606.00;5115006;28;20539;-66
2022/03/11 01:59:11;;;;;;;13.07;11.88;;;;;;;-2.57;58.51;95593.56;5115548;28;20641;-65
2022/03/11 02:01:38;;;;;;;12.95;11.75;;;;;;;-2.62;59.01;95603.50;5114904;28;20203;-65
2022/03/11 02:04:05;;;;;;;12.48;11.48;;;;;;;-2.63;58.74;95597.28;5115273;28;20605;-65
2022/03/11 02:06:32;;;;;;;12.55;11.45;;;;;;;-2.69;58.91;95599.13;5115030;28;20203;-66
2022/03/11 02:09:01;;;;;;;13.07;11.95;;;;;;;-2.76;58.91;95593.13;5115740;28;20187;-66
2022/03/11 02:11:28;;;;;;;12.85;11.75;;;;;;;-2.82;59.13;95598.72;5114876;28;20602;-66
2022/03/11 02:13:57;;;;;;;12.93;11.77;;;;;;;-2.83;59.38;95603.31;5115479;28;20184;-66
2022/03/11 02:16:25;;;;;;;13.60;12.40;;;;;;;-2.78;59.25;95605.25;5115379;28;20184;-66
2022/03/11 02:18:52;;;;;;;13.25;12.05;;;;;;;-2.86;59.11;95598.44;5115584;28;20207;-66
2022/03/11 02:21:21;;;;;;;13.32;12.13;;;;;;;-2.93;59.15;95595.13;5115377;28;20637;-66
2022/03/11 02:23:51;;;;;;;13.10;11.93;;;;;;;-2.92;59.47;95600.25;5114659;28;20192;-66
2022/03/11 02:26:19;;;;;;;12.88;11.88;;;;;;;-2.94;59.50;95605.09;5115256;28;20517;-66
2022/03/11 02:28:46;;;;;;;12.95;11.85;;;;;;;-2.97;59.51;95602.91;5117698;28;20567;-66
2022/03/11 02:31:14;;;;;;;13.10;11.85;;;;;;;-2.99;59.62;95604.22;5119829;28;20187;-66
2022/03/11 02:33:41;;;;;;;13.52;12.30;;;;;;;-3.01;59.29;95600.97;5119393;28;20203;-66
2022/03/11 02:36:09;;;;;;;13.30;12.10;;;;;;;-2.97;59.55;95615.59;5119632;28;20191;-65
2022/03/11 02:38:37;;;;;;;13.13;12.02;;;;;;;-2.96;59.55;95607.22;5119425;28;20210;-65
2022/03/11 02:41:05;;;;;;;14.05;12.85;;;;;;;-2.94;59.29;95612.41;5118762;28;20215;-65
2022/03/11 02:43:32;;;;;;;13.20;12.10;;;;;;;-2.92;59.29;95616.44;5119162;28;20237;-66
2022/03/11 02:45:59;;;;;;;14.00;12.70;;;;;;;-2.90;59.47;95613.50;5119483;28;20191;-66
2022/03/11 02:48:26;;;;;;;14.07;12.88;;;;;;;-2.97;60.06;95623.69;5119280;27;20215;-66
2022/03/11 02:50:52;;;;;;;14.18;13.02;;;;;;;-3.03;59.92;95625.50;5119340;28;20203;-66
2022/03/11 02:53:19;;;;;;;15.10;13.80;;;;;;;-3.05;60.10;95624.13;5118436;28;20209;-66
2022/03/11 02:55:46;;;;;;;15.07;13.77;;;;;;;-3.09;60.71;95626.50;5119311;28;20186;-66
2022/03/11 02:58:14;;;;;;;14.35;13.15;;;;;;;-3.10;60.71;95627.59;5119426;28;20188;-66
2022/03/11 03:00:41;;;;;;;14.00;12.80;;;;;;;-3.12;59.24;95626.19;5118555;28;20208;-66
2022/03/11 03:03:08;;;;;;;15.82;14.43;;;;;;;-3.18;60.25;95623.47;5119316;27;20189;-66
2022/03/11 03:05:34;;;;;;;16.85;15.43;;;;;;;-3.31;59.88;95626.53;5119205;28;20196;-66
2022/03/11 03:08:01;;;;;;;16.25;14.75;;;;;;;-3.52;60.58;95630.91;5118571;28;20207;-66
2022/03/11 03:10:28;;;;;;;16.88;15.48;;;;;;;-3.59;61.10;95624.06;5118262;28;20191;-66
2022/03/11 03:12:55;;;;;;;17.67;16.17;;;;;;;-3.66;61.06;95635.03;5119042;28;20526;-66
2022/03/11 03:15:23;;;;;;;18.52;16.80;;;;;;;-3.67;61.35;95622.59;5118998;28;20585;-66
2022/03/11 03:17:50;;;;;;;17.63;16.13;;;;;;;-3.64;61.29;95622.91;5117701;28;20203;-65
2022/03/11 03:20:16;;;;;;;18.52;16.90;;;;;;;-3.72;61.13;95622.53;5117991;28;20227;-65
2022/03/11 03:22:43;;;;;;;18.83;17.13;;;;;;;-3.72;60.93;95620.66;5118804;28;20475;-65
2022/03/11 03:25:10;;;;;;;18.30;16.80;;;;;;;-3.75;61.08;95625.72;5117864;28;20206;-65
2022/03/11 03:27:37;;;;;;;17.80;16.20;;;;;;;-3.78;60.97;95631.59;5118762;28;20186;-65
2022/03/11 03:30:05;;;;;;;16.83;15.27;;;;;;;-3.81;61.37;95626.69;5118910;28;20191;-65
2022/03/11 03:32:33;;;;;;;18.60;17.00;;;;;;;-3.76;61.17;95627.59;5118309;28;20206;-65
2022/03/11 03:35:00;;;;;;;17.30;15.70;;;;;;;-3.72;60.96;95633.31;5118595;28;20198;-65
2022/03/11 03:37:27;;;;;;;17.23;15.73;;;;;;;-3.75;60.98;95633.81;5117620;28;20191;-65
2022/03/11 03:39:54;;;;;;;16.45;15.05;;;;;;;-3.73;61.04;95626.31;5118047;28;20206;-65
2022/03/11 03:42:21;;;;;;;16.48;14.88;;;;;;;-3.75;61.06;95631.09;5118444;28;20537;-65
2022/03/11 03:44:47;;;;;;;16.30;15.00;;;;;;;-3.74;60.97;95625.50;5117871;28;20238;-65
2022/03/11 03:47:14;;;;;;;16.75;15.35;;;;;;;-3.73;61.07;95629.00;5117483;28;20286;-65
2022/03/11 03:49:42;;;;;;;16.13;14.80;;;;;;;-3.71;61.13;95632.25;5118332;28;20184;-65
2022/03/11 03:52:12;;;;;;;16.75;15.25;;;;;;;-3.70;60.92;95634.69;5117375;28;20515;-65
2022/03/11 03:54:39;;;;;;;15.80;14.50;;;;;;;-3.69;61.18;95627.44;5117318;28;20188;-65
2022/03/11 03:57:06;;;;;;;15.10;13.90;;;;;;;-3.67;61.13;95630.66;5117956;28;20176;-65
2022/03/11 03:59:33;;;;;;;14.57;13.38;;;;;;;-3.64;60.53;95633.69;5117092;28;20310;-66
2022/03/11 04:01:59;;;;;;;15.05;13.75;;;;;;;-3.61;61.08;95635.06;5118157;28;20523;-66
2022/03/11 04:04:27;;;;;;;14.45;13.25;;;;;;;-3.65;61.23;95634.75;5117802;28;20282;-65
2022/03/11 04:06:55;;;;;;;13.18;12.07;;;;;;;-3.70;60.86;95634.69;5117115;28;20192;-65
2022/03/11 04:09:22;;;;;;;13.35;12.30;;;;;;;-3.70;60.27;95636.59;5117888;28;20184;-65
2022/03/11 04:11:49;;;;;;;14.65;13.45;;;;;;;-3.74;61.32;95643.50;5117529;28;20248;-65
2022/03/11 04:14:16;;;;;;;15.18;13.77;;;;;;;-3.78;61.39;95645.88;5118047;28;20191;-65
2022/03/11 04:16:42;;;;;;;13.77;12.65;;;;;;;-3.77;60.89;95652.13;5117015;28;20512;-65
2022/03/11 04:19:09;;;;;;;12.45;11.35;;;;;;;-3.75;60.48;95655.38;5116813;28;20200;-65
2022/03/11 04:21:36;;;;;;;12.05;11.05;;;;;;;-3.78;60.60;95661.25;5116776;28;20211;-65
2022/03/11 04:24:12;;;;;;;11.57;10.60;;;;;;;-3.71;60.47;95660.00;5116913;28;20196;-65
2022/03/11 04:26:40;;;;;;;11.43;10.45;;;;;;;-3.75;60.52;95661.56;5116623;28;20234;-65
2022/03/11 04:29:07;;;;;;;11.90;10.85;;;;;;;-3.81;60.01;95659.06;5117642;28;20196;-65
2022/03/11 04:31:34;;;;;;;11.77;10.88;;;;;;;-3.84;60.49;95660.38;5116370;28;20206;-65
2022/03/11 04:34:02;;;;;;;12.73;11.73;;;;;;;-3.80;60.91;95656.13;5117195;28;20255;-65
2022/03/11 04:36:32;;;;;;;15.05;13.65;;;;;;;-3.91;60.54;95659.75;5116648;28;20300;-65
2022/03/11 04:38:59;;;;;;;15.45;13.95;;;;;;;-4.00;60.77;95664.72;5116422;28;20214;-65
2022/03/11 04:41:28;;;;;;;14.35;13.15;;;;;;;-4.04;61.05;95666.28;5116385;28;20222;-65
2022/03/11 04:43:54;;;;;;;14.82;13.73;;;;;;;-4.07;61.24;95663.25;5116940;28;20227;-66
2022/03/11 04:46:21;;;;;;;15.52;14.10;;;;;;;-4.11;61.68;95661.06;5116219;28;20715;-65
2022/03/11 04:48:49;;;;;;;14.98;13.63;;;;;;;-4.11;61.21;95652.16;5116878;28;20180;-65
2022/03/11 04:51:16;;;;;;;15.40;13.95;;;;;;;-4.12;62.01;95670.19;5115331;28;20248;-65
2022/03/11 04:53:43;;;;;;;15.45;14.10;;;;;;;-4.16;61.60;95666.38;5116616;28;20195;-65
2022/03/11 04:56:10;;;;;;;17.92;16.17;;;;;;;-4.23;61.63;95670.28;5116449;28;20212;-65
2022/03/11 04:58:38;;;;;;;17.90;16.20;;;;;;;-4.30;61.98;95665.06;5116991;28;20589;-65
2022/03/11 05:01:05;;;;;;;18.55;16.85;;;;;;;-4.34;62.36;95668.50;5116566;28;20206;-65
2022/03/11 05:03:31;;;;;;;18.13;16.05;;;;;;;-4.32;62.03;95667.22;5115614;28;20209;-64
2022/03/11 05:05:58;;;;;;;17.35;15.35;;;;;;;-4.41;62.04;95674.84;5116060;28;20202;-64
2022/03/11 05:08:25;;;;;;;18.58;16.20;;;;;;;-4.44;62.12;95674.53;5116346;28;20526;-65
2022/03/11 05:10:52;;;;;;;19.42;16.25;;;;;;;-4.39;62.58;95680.00;5116752;28;20184;-65
2022/03/11 05:13:19;;;;;;;19.65;17.58;;;;;;;-4.33;61.83;95670.13;5115409;28;20192;-65
2022/03/11 05:15:47;;;;;;;19.58;17.63;;;;;;;-4.23;62.05;95681.06;5116706;27;20214;-65
2022/03/11 05:18:14;;;;;;;21.90;19.77;;;;;;;-4.17;61.51;95685.50;5116606;28;20192;-70
2022/03/11 05:20:41;;;;;;;29.92;27.02;;;;;;;-4.12;61.51;95688.25;5115781;28;20219;-64
2022/03/11 05:23:07;;;;;;;22.77;20.48;;;;;;;-4.11;61.08;95684.50;5115628;28;20605;-64
2022/03/11 05:25:34;;;;;;;22.45;20.25;;;;;;;-4.12;61.45;95696.34;5115516;28;20198;-65
2022/03/11 05:28:01;;;;;;;22.48;20.23;;;;;;;-4.12;61.69;95686.38;5115524;28;20597;-64
2022/03/11 05:30:28;;;;;;;23.60;20.63;;;;;;;-4.05;61.31;95691.59;5116589;28;20218;-65
2022/03/11 05:32:56;;;;;;;22.10;20.13;;;;;;;-4.00;61.73;95691.66;5115606;28;20310;-65
2022/03/11 05:35:23;;;;;;;22.85;20.65;;;;;;;-3.94;61.49;95700.66;5115622;28;20199;-65
2022/03/11 05:37:50;;;;;;;25.85;23.35;;;;;;;-3.91;61.80;95706.38;5115914;28;20184;-64
2022/03/11 05:40:17;;;;;;;23.70;21.35;;;;;;;-3.83;61.26;95709.72;5116418;28;20207;-65
2022/03/11 05:42:43;;;;;;;21.23;19.20;;;;;;;-3.74;60.75;95706.38;5116336;28;20203;-65
2022/03/11 05:45:11;;;;;;;20.67;18.77;;;;;;;-3.69;60.50;95711.81;5115212;28;20203;-65
2022/03/11 05:47:38;;;;;;;19.23;17.52;;;;;;;-3.64;60.65;95711.06;5115232;28;20204;-65
2022/03/11 05:50:08;;;;;;;19.25;17.45;;;;;;;-3.60;60.09;95709.50;5115310;28;20176;-65
2022/03/11 05:52:38;;;;;;;18.85;17.15;;;;;;;-3.56;59.83;95709.81;5116126;28;20195;-65
2022/03/11 05:55:06;;;;;;;17.38;15.77;;;;;;;-3.59;59.81;95708.47;5115731;28;20597;-65
2022/03/11 05:57:33;;;;;;;15.77;14.23;;;;;;;-3.60;59.44;95714.91;5116121;28;20230;-64
2022/03/11 06:00:00;;;;;;;17.20;15.35;;;;;;;-3.58;59.52;95704.69;5115687;28;20199;-65
2022/03/11 06:02:26;;;;;;;16.65;15.15;;;;;;;-3.53;59.83;95712.84;5115941;28;20184;-65
2022/03/11 06:04:53;;;;;;;17.40;15.80;;;;;;;-3.47;59.82;95711.84;5114885;28;20199;-65
2022/03/11 06:07:22;;;;;;;18.05;16.35;;;;;;;-3.39;59.29;95716.81;5115436;28;20592;-65
2022/03/11 06:09:48;;;;;;;16.35;14.80;;;;;;;-3.27;59.17;95719.41;5115001;28;20196;-65
2022/03/11 06:12:15;;;;;;;17.02;15.45;;;;;;;-3.26;58.46;95715.66;5114886;28;20203;-65
2022/03/11 06:14:42;;;;;;;16.17;14.68;;;;;;;-3.13;59.19;95719.03;5114522;28;20209;-65
2022/03/11 06:17:09;;;;;;;15.88;14.48;;;;;;;-3.08;58.31;95730.72;5115095;28;20234;-67
2022/03/11 06:19:36;;;;;;;19.17;16.90;;;;;;;-2.94;58.09;95721.19;5114801;28;20191;-66
2022/03/11 06:22:03;;;;;;;16.95;15.38;;;;;;;-2.85;58.02;95726.13;5114871;28;20219;-66
2022/03/11 06:24:31;;;;;;;16.25;14.85;;;;;;;-2.81;57.89;95722.66;5115683;28;20180;-66
2022/03/11 06:26:58;;;;;;;16.73;15.18;;;;;;;-2.70;57.78;95729.81;5114674;28;20204;-66
2022/03/11 06:29:25;;;;;;;14.60;13.40;;;;;;;-2.70;57.40;95732.50;5115331;28;20182;-66
2022/03/11 06:31:51;;;;;;;15.52;14.13;;;;;;;-2.57;57.19;95734.00;5115426;28;20210;-66
2022/03/11 06:34:18;;;;;;;15.23;13.85;;;;;;;-2.59;56.82;95738.84;5115058;28;20529;-66
2022/03/11 06:36:45;;;;;;;15.52;14.15;;;;;;;-2.51;57.18;95737.56;5114449;28;20199;-66
2022/03/11 06:39:13;;;;;;;15.60;14.27;;;;;;;-2.44;56.38;95740.88;5114200;28;20199;-65
2022/03/11 06:41:42;;;;;;;17.10;15.50;;;;;;;-2.44;56.66;95748.97;5115501;28;20211;-65
2022/03/11 06:44:09;;;;;;;15.38;14.07;;;;;;;-2.45;56.47;95742.78;5114713;28;20238;-65
2022/03/11 06:46:36;;;;;;;15.27;14.02;;;;;;;-2.49;56.68;95747.06;5115194;28;20179;-65
2022/03/11 06:49:03;;;;;;;15.52;14.15;;;;;;;-2.38;57.56;95744.47;5115583;28;20183;-65
2022/03/11 06:51:29;;;;;;;15.30;13.90;;;;;;;-2.28;56.25;95747.28;5115232;28;20184;-65
2022/03/11 06:53:56;;;;;;;14.68;13.38;;;;;;;-2.25;56.16;95744.03;5114834;28;20562;-65
2022/03/11 06:56:23;;;;;;;14.60;13.30;;;;;;;-2.12;56.22;95743.63;5114278;28;20290;-65
2022/03/11 06:58:51;;;;;;;13.57;12.13;;;;;;;-1.99;55.73;95750.50;5115327;28;20199;-65
2022/03/11 07:01:18;;;;;;;15.32;14.05;;;;;;;-1.93;54.58;95752.16;5114240;28;20219;-65
2022/03/11 07:03:45;;;;;;;14.73;13.52;;;;;;;-1.92;55.60;95745.72;5115218;28;20196;-65
2022/03/11 07:06:12;;;;;;;14.93;13.70;;;;;;;-1.82;54.65;95743.06;5113954;28;20629;-65
2022/03/11 07:08:39;;;;;;;14.90;13.60;;;;;;;-1.70;55.01;95742.91;5115240;28;20207;-65
2022/03/11 07:11:06;;;;;;;16.05;14.75;;;;;;;-1.64;54.54;95749.97;5114454;28;20199;-65
2022/03/11 07:13:34;;;;;;;14.38;13.20;;;;;;;-1.63;54.19;95751.63;5115443;28;20199;-68
2022/03/11 07:16:02;;;;;;;14.55;13.35;;;;;;;-1.66;53.97;95749.44;5119263;28;20188;-65
2022/03/11 07:18:29;;;;;;;13.68;12.40;;;;;;;-1.63;54.43;95750.81;5119644;28;20184;-66
2022/03/11 07:20:55;;;;;;;14.75;13.48;;;;;;;-1.54;54.33;95747.34;5118728;28;20204;-66
2022/03/11 07:23:22;;;;;;;14.93;13.55;;;;;;;-1.43;54.10;95750.13;5117945;28;20527;-66
2022/03/11 07:25:50;;;;;;;10.45;9.65;;;;;;;-1.36;53.03;95753.41;5118626;28;20196;-66
2022/03/11 07:28:18;;;;;;;13.02;11.95;;;;;;;-1.39;52.03;95743.91;5118783;28;20180;-66
2022/03/11 07:30:45;;;;;;;11.07;10.27;;;;;;;-1.42;52.23;95744.44;5118856;28;20262;-66
2022/03/11 07:33:13;;;;;;;11.07;10.18;;;;;;;-1.38;51.83;95744.72;5118349;28;20192;-65
2022/03/11 07:35:40;;;;;;;12.18;11.20;;;;;;;-1.20;52.50;95738.88;5119149;28;20207;-66
2022/03/11 07:38:07;;;;;;;10.73;9.93;;;;;;;-1.13;51.91;95742.16;5118587;28;20174;-66
2022/03/11 07:40:34;;;;;;;13.75;12.73;;;;;;;-1.03;51.16;95741.41;5118360;28;20190;-66
2022/03/11 07:43:01;;;;;;;13.43;12.40;;;;;;;-1.07;50.42;95740.31;5117564;28;20238;-66
2022/03/11 07:45:28;;;;;;;15.18;13.88;;;;;;;-1.06;50.84;95742.75;5118579;28;20184;-66
2022/03/11 07:47:54;;;;;;;13.52;12.43;;;;;;;-1.09;50.66;95737.03;5118163;28;20192;-66
2022/03/11 07:50:23;;;;;;;10.77;9.77;;;;;;;-1.14;50.71;95740.56;5118900;28;20257;-66
2022/03/11 07:52:49;;;;;;;10.45;9.65;;;;;;;-0.94;50.80;95744.44;5118548;28;20180;-66
2022/03/11 07:55:17;;;;;;;9.68;8.98;;;;;;;-0.78;50.72;95744.25;5117204;28;20199;-65
2022/03/11 07:57:44;;;;;;;10.80;9.80;;;;;;;-0.60;51.03;95742.97;5117991;28;20202;-65
2022/03/11 08:00:13;;;;;;;10.98;10.00;;;;;;;-0.54;50.01;95744.63;5117443;28;20202;-66
2022/03/11 08:02:40;;;;;;;11.02;10.02;;;;;;;-0.32;50.23;95738.97;5118273;28;20211;-66
2022/03/11 08:05:14;;;;;;;9.68;8.77;;;;;;;-0.26;49.66;95740.59;5117777;28;20180;-65
2022/03/11 08:07:44;;;;;;;10.27;9.27;;;;;;;-0.24;49.70;95737.63;5117207;28;20196;-65
2022/03/11 08:10:11;;;;;;;9.40;8.50;;;;;;;-0.14;48.29;95745.00;5117925;28;20184;-65
2022/03/11 08:12:38;;;;;;;10.15;9.30;;;;;;;-0.05;48.48;95735.22;5117586;28;20190;-66
2022/03/11 08:15:06;;;;;;;9.32;8.52;;;;;;;-0.07;48.28;95742.81;5116921;28;20206;-66
2022/03/11 08:17:32;;;;;;;9.65;8.80;;;;;;;-0.22;49.11;95742.78;5116742;28;20253;-65
2022/03/11 08:19:59;;;;;;;10.35;9.48;;;;;;;-0.30;48.64;95738.69;5117451;28;20187;-66
2022/03/11 08:22:26;;;;;;;9.45;8.75;;;;;;;-0.14;48.16;95737.66;5116866;28;20268;-65
2022/03/11 08:24:54;;;;;;;9.35;8.65;;;;;;;-0.06;48.85;95739.84;5116814;28;20190;-66
2022/03/11 08:27:21;;;;;;;9.27;8.48;;;;;;;-0.03;47.64;95735.78;5116696;28;20609;-67
2022/03/11 08:29:48;;;;;;;9.35;8.65;;;;;;;0.11;48.35;95731.44;5116382;28;20218;-66
2022/03/11 08:32:15;;;;;;;10.30;9.40;;;;;;;0.36;47.55;95729.81;5117242;28;20560;-66
2022/03/11 08:34:41;;;;;;;10.23;9.43;;;;;;;0.60;46.98;95736.31;5116924;28;20199;-66
2022/03/11 08:37:08;;;;;;;8.98;8.27;;;;;;;0.29;45.46;95734.69;5116763;28;20210;-66
2022/03/11 08:39:35;;;;;;;8.48;7.78;;;;;;;0.37;46.24;95737.69;5116519;28;20192;-66
2022/03/11 08:42:04;;;;;;;9.82;8.77;;;;;;;0.62;45.19;95736.03;5117284;28;20215;-66
2022/03/11 08:44:31;;;;;;;9.93;9.00;;;;;;;0.82;46.33;95733.28;5116066;28;20231;-66
2022/03/11 08:46:57;;;;;;;9.50;8.65;;;;;;;0.68;46.43;95724.88;5116429;28;20206;-65
2022/03/11 08:49:25;;;;;;;9.20;8.30;;;;;;;0.67;46.60;95727.88;5117165;28;20274;-65
2022/03/11 08:51:52;;;;;;;9.05;8.35;;;;;;;0.21;46.06;95726.00;5116224;28;20204;-65
2022/03/11 08:54:19;;;;;;;9.15;8.35;;;;;;;0.22;46.84;95718.72;5117303;28;20184;-65
2022/03/11 08:56:46;;;;;;;9.63;8.88;;;;;;;0.55;46.04;95714.59;5116351;28;20195;-65
2022/03/11 08:59:14;;;;;;;9.65;8.90;;;;;;;0.89;46.30;95717.50;5117000;28;20186;-65
2022/03/11 09:01:41;;;;;;;9.20;8.40;;;;;;;0.88;45.01;95715.09;5116784;28;20509;-65
2022/03/11 09:04:08;;;;;;;8.65;8.02;;;;;;;0.67;45.05;95714.31;5117030;28;20195;-65
2022/03/11 09:06:35;;;;;;;8.93;8.10;;;;;;;0.83;44.59;95715.88;5116431;28;20204;-65
2022/03/11 09:09:02;;;;;;;8.23;7.63;;;;;;;0.58;44.75;95724.09;5116091;28;20195;-66
2022/03/11 09:11:28;;;;;;;8.57;7.90;;;;;;;0.73;44.41;95721.38;5116004;28;20191;-66
2022/03/11 09:13:55;;;;;;;8.60;7.90;;;;;;;0.91;43.44;95720.78;5115575;28;20192;-66
2022/03/11 09:16:24;;;;;;;9.35;8.55;;;;;;;0.89;44.05;95719.41;5115787;28;20569;-66
2022/03/11 09:18:51;;;;;;;9.48;8.77;;;;;;;0.90;44.23;95719.13;5115535;28;20196;-66
2022/03/11 09:21:18;;;;;;;9.45;8.57;;;;;;;0.79;44.55;95728.38;5116466;28;20214;-66
2022/03/11 09:23:44;;;;;;;8.98;8.30;;;;;;;0.89;44.61;95722.94;5116429;28;20179;-65
2022/03/11 09:26:11;;;;;;;8.90;8.20;;;;;;;0.91;43.64;95718.06;5116175;28;20552;-66
2022/03/11 09:28:38;;;;;;;8.52;7.82;;;;;;;0.93;43.41;95721.31;5116650;28;20199;-66
2022/03/11 09:31:08;;;;;;;9.07;8.38;;;;;;;0.90;42.76;95724.56;5116678;28;20188;-65
2022/03/11 09:33:37;;;;;;;10.15;9.25;;;;;;;0.90;43.06;95718.31;5116423;28;20184;-65
2022/03/11 09:36:04;;;;;;;9.95;9.15;;;;;;;0.83;42.71;95720.50;5115961;28;20188;-65
2022/03/11 09:38:31;;;;;;;9.90;9.10;;;;;;;0.90;42.53;95727.28;5116164;28;20274;-65
2022/03/11 09:40:59;;;;;;;9.50;8.80;;;;;;;0.99;44.05;95721.31;5116046;28;20196;-65
2022/03/11 09:43:26;;;;;;;9.63;8.82;;;;;;;1.03;43.09;95725.91;5114946;28;20241;-65
2022/03/11 09:45:53;;;;;;;9.52;8.73;;;;;;;0.91;42.74;95725.41;5116248;28;20180;-66
2022/03/11 09:48:20;;;;;;;8.88;8.18;;;;;;;0.95;42.96;95726.47;5116101;28;20180;-65
2022/03/11 09:50:49;;;;;;;9.95;9.15;;;;;;;0.89;43.12;95727.56;5115989;28;20286;-65
2022/03/11 09:53:16;;;;;;;10.00;9.20;;;;;;;0.86;43.66;95720.78;5115245;28;20681;-65
2022/03/11 09:55:43;;;;;;;8.88;8.27;;;;;;;0.93;43.25;95715.06;5115840;28;20184;-66
2022/03/11 09:58:10;;;;;;;9.70;9.00;;;;;;;1.01;43.57;95709.03;5115013;28;20199;-68
2022/03/11 10:00:38;;;;;;;10.95;9.93;;;;;;;1.05;43.15;95712.03;5115853;28;20183;-66
2022/03/11 10:03:05;;;;;;;10.55;9.65;;;;;;;1.06;44.17;95713.69;5115841;28;20207;-66
2022/03/11 10:05:46;;;;;;;10.93;10.02;;;;;;;1.03;42.82;95711.50;5115704;28;20237;-66
2022/03/11 10:08:14;;;;;;;9.63;8.93;;;;;;;1.03;42.37;95712.31;5115626;28;20621;-66
2022/03/11 10:10:41;;;;;;;10.70;9.90;;;;;;;1.14;42.77;95707.66;5114486;28;20283;-66
2022/03/11 10:13:10;;;;;;;9.85;9.18;;;;;;;1.25;43.13;95705.72;5115428;28;20503;-66
2022/03/11 10:15:38;;;;;;;10.40;9.50;;;;;;;1.29;41.45;95707.59;5114471;28;20206;-66
2022/03/11 10:18:08;;;;;;;9.85;9.10;;;;;;;1.25;41.27;95706.53;5115031;28;20232;-66
2022/03/11 10:20:36;;;;;;;10.35;9.55;;;;;;;1.31;42.20;95710.06;5114955;28;20204;-65
2022/03/11 10:23:08;;;;;;;9.70;8.90;;;;;;;1.31;41.51;95710.84;5115606;28;20199;-66
2022/03/11 10:25:37;;;;;;;9.50;8.70;;;;;;;1.33;41.07;95703.22;5114625;28;20206;-66
2022/03/11 10:28:06;;;;;;;9.38;8.70;;;;;;;1.26;40.76;95710.06;5114879;28;20204;-66
2022/03/11 10:30:34;;;;;;;9.63;8.85;;;;;;;1.05;40.83;95709.31;5114583;28;20676;-66
2022/03/11 10:33:02;;;;;;;9.13;8.40;;;;;;;0.94;42.27;95706.66;5114625;28;20196;-66
2022/03/11 10:35:34;;;;;;;9.02;8.23;;;;;;;1.00;42.75;95703.91;5114497;28;20628;-66
2022/03/11 10:38:04;;;;;;;10.10;9.23;;;;;;;1.01;43.04;95700.09;5115895;28;20212;-66
2022/03/11 10:40:32;;;;;;;9.05;8.27;;;;;;;1.04;42.53;95703.06;5115367;28;20195;-66
2022/03/11 10:43:18;;;;;;;9.10;8.30;;;;;;;0.71;43.98;95708.03;5115337;28;20235;-66
2022/03/11 10:45:50;;;;;;;9.68;8.85;;;;;;;0.72;42.93;95708.84;5115462;28;20207;-66
2022/03/11 10:48:18;;;;;;;10.35;9.55;;;;;;;0.77;42.95;95702.63;5115392;28;20186;-66
2022/03/11 10:50:45;;;;;;;10.23;9.35;;;;;;;0.86;43.17;95699.03;5118470;28;20690;-66
2022/03/11 10:53:13;;;;;;;9.07;8.38;;;;;;;0.86;42.23;95692.81;5119799;28;20176;-66
2022/03/11 10:55:42;;;;;;;9.73;8.93;;;;;;;0.88;42.72;95696.06;5118391;28;20200;-66
2022/03/11 10:58:10;;;;;;;10.30;9.50;;;;;;;0.93;41.94;95694.13;5118721;28;20204;-66
2022/03/11 11:00:40;;;;;;;9.60;8.88;;;;;;;1.00;41.88;95693.84;5118203;28;20195;-65
2022/03/11 11:03:08;;;;;;;11.07;10.07;;;;;;;0.96;41.98;95690.88;5118209;28;20731;-66
2022/03/11 11:05:36;;;;;;;9.95;9.05;;;;;;;1.07;41.58;95690.84;5119016;28;20188;-66
2022/03/11 11:08:04;;;;;;;10.32;9.50;;;;;;;1.18;41.96;95679.66;5118558;28;20207;-66
2022/03/11 11:10:33;;;;;;;9.85;9.05;;;;;;;1.26;40.95;95683.69;5118126;28;20192;-66
2022/03/11 11:13:01;;;;;;;10.23;9.43;;;;;;;1.30;39.66;95671.16;5118054;28;20191;-66
2022/03/11 11:15:28;;;;;;;9.50;8.73;;;;;;;1.44;41.30;95674.91;5119063;28;20582;-66
2022/03/11 11:17:56;;;;;;;9.55;8.75;;;;;;;1.58;40.41;95666.94;5118329;28;20192;-66
2022/03/11 11:20:25;;;;;;;10.07;9.18;;;;;;;1.64;40.32;95668.53;5118886;28;20191;-66
2022/03/11 11:22:53;;;;;;;9.07;8.38;;;;;;;1.71;39.56;95670.09;5118843;28;20277;-67
2022/03/11 11:25:21;;;;;;;9.13;8.52;;;;;;;1.72;40.16;95664.41;5118794;28;20190;-66